Cornland, Illinois
Current Conditions -  °F | °C
As of 9:52 AM on Friday 24 Oct 2014 (Local Time) from KSPI Reporting Station
Moderate Fog Moderate Fog  
Wind Chill: 55°   Ceiling: 200
Heat Index: 55°   Visibility: 0.25mi
Dew Point: 54°   Wind: 3mph
Humidity: 96%   Direction: 230°SW
Pressure: 30.12"   Gusts: NA
Location:  39.94°N, 89.4°W
Report Text: KSPI 241452Z 23003KT 1/4SM R04/2200V2600FT FG VV002 13/12 A3012 RMK AO2 SLP198 T01280122 53009
Loading
Personal Weather Stations






























Interactive Weather Map
Tropical Storm Tracking
New forecast layout! Learn more

10-Day Weather Forecast

Advertisements
Track Severe Weather on mobile